sensor_id;sensor_type;location;lat;lon;timestamp;temperature;humidity
46926;DHT22;32667;48.248;-1.700;2023-12-04T00:02:21;7.30;76.90
46926;DHT22;32667;48.248;-1.700;2023-12-04T00:04:47;7.30;77.60
46926;DHT22;32667;48.248;-1.700;2023-12-04T00:07:13;7.40;77.00
46926;DHT22;32667;48.248;-1.700;2023-12-04T00:09:41;7.40;77.00
46926;DHT22;32667;48.248;-1.700;2023-12-04T00:12:06;7.30;77.50
46926;DHT22;32667;48.248;-1.700;2023-12-04T00:14:32;7.40;76.90
46926;DHT22;32667;48.248;-1.700;2023-12-04T00:16:58;7.40;77.00
46926;DHT22;32667;48.248;-1.700;2023-12-04T00:19:24;7.40;77.00
46926;DHT22;32667;48.248;-1.700;2023-12-04T00:21:51;7.40;77.00
46926;DHT22;32667;48.248;-1.700;2023-12-04T00:24:17;7.40;76.90
46926;DHT22;32667;48.248;-1.700;2023-12-04T00:26:47;7.40;76.90
46926;DHT22;32667;48.248;-1.700;2023-12-04T00:29:18;7.40;76.80
46926;DHT22;32667;48.248;-1.700;2023-12-04T00:31:44;7.40;76.80
46926;DHT22;32667;48.248;-1.700;2023-12-04T00:34:09;7.40;76.80
46926;DHT22;32667;48.248;-1.700;2023-12-04T00:36:37;7.40;76.90
46926;DHT22;32667;48.248;-1.700;2023-12-04T00:39:03;7.40;76.80
46926;DHT22;32667;48.248;-1.700;2023-12-04T00:41:31;7.40;76.80
46926;DHT22;32667;48.248;-1.700;2023-12-04T00:43:57;7.40;76.80
46926;DHT22;32667;48.248;-1.700;2023-12-04T00:46:25;7.40;76.80
46926;DHT22;32667;48.248;-1.700;2023-12-04T00:48:51;7.50;76.80
46926;DHT22;32667;48.248;-1.700;2023-12-04T00:51:17;7.50;76.70
46926;DHT22;32667;48.248;-1.700;2023-12-04T00:53:43;7.50;76.70
46926;DHT22;32667;48.248;-1.700;2023-12-04T00:56:11;7.50;76.70
46926;DHT22;32667;48.248;-1.700;2023-12-04T00:58:38;7.60;76.80
46926;DHT22;32667;48.248;-1.700;2023-12-04T01:01:04;7.60;76.70
46926;DHT22;32667;48.248;-1.700;2023-12-04T01:03:30;7.60;76.60
46926;DHT22;32667;48.248;-1.700;2023-12-04T01:05:58;7.60;76.60
46926;DHT22;32667;48.248;-1.700;2023-12-04T01:08:24;7.60;76.60
46926;DHT22;32667;48.248;-1.700;2023-12-04T01:10:53;7.60;76.60
46926;DHT22;32667;48.248;-1.700;2023-12-04T01:13:18;7.60;76.60
46926;DHT22;32667;48.248;-1.700;2023-12-04T01:15:44;7.60;76.50
46926;DHT22;32667;48.248;-1.700;2023-12-04T01:18:11;7.70;76.60
46926;DHT22;32667;48.248;-1.700;2023-12-04T01:20:37;7.70;76.60
46926;DHT22;32667;48.248;-1.700;2023-12-04T01:23:03;7.70;76.60
46926;DHT22;32667;48.248;-1.700;2023-12-04T01:25:29;7.70;76.60
46926;DHT22;32667;48.248;-1.700;2023-12-04T01:27:54;7.70;76.50
46926;DHT22;32667;48.248;-1.700;2023-12-04T01:30:20;7.70;76.60
46926;DHT22;32667;48.248;-1.700;2023-12-04T01:32:46;7.70;76.50
46926;DHT22;32667;48.248;-1.700;2023-12-04T01:35:11;7.80;76.50
46926;DHT22;32667;48.248;-1.700;2023-12-04T01:37:39;7.80;76.50
46926;DHT22;32667;48.248;-1.700;2023-12-04T01:40:08;7.80;76.40
46926;DHT22;32667;48.248;-1.700;2023-12-04T01:42:34;7.80;76.40
46926;DHT22;32667;48.248;-1.700;2023-12-04T01:45:00;7.80;76.40
46926;DHT22;32667;48.248;-1.700;2023-12-04T01:47:28;7.80;76.40
46926;DHT22;32667;48.248;-1.700;2023-12-04T01:49:54;7.90;76.40
46926;DHT22;32667;48.248;-1.700;2023-12-04T01:52:20;7.90;76.40
46926;DHT22;32667;48.248;-1.700;2023-12-04T01:54:45;7.90;76.40
46926;DHT22;32667;48.248;-1.700;2023-12-04T01:57:11;8.00;76.40
46926;DHT22;32667;48.248;-1.700;2023-12-04T01:59:37;8.00;76.40
46926;DHT22;32667;48.248;-1.700;2023-12-04T02:02:04;8.00;76.40
46926;DHT22;32667;48.248;-1.700;2023-12-04T02:04:31;8.00;76.30
46926;DHT22;32667;48.248;-1.700;2023-12-04T02:07:04;8.10;76.40
46926;DHT22;32667;48.248;-1.700;2023-12-04T02:09:30;8.10;76.20
46926;DHT22;32667;48.248;-1.700;2023-12-04T02:11:57;8.10;76.20
46926;DHT22;32667;48.248;-1.700;2023-12-04T02:14:25;8.10;76.20
46926;DHT22;32667;48.248;-1.700;2023-12-04T02:16:52;8.10;76.30
46926;DHT22;32667;48.248;-1.700;2023-12-04T02:19:20;8.10;76.20
46926;DHT22;32667;48.248;-1.700;2023-12-04T02:21:46;8.10;76.20
46926;DHT22;32667;48.248;-1.700;2023-12-04T02:24:12;8.20;76.30
46926;DHT22;32667;48.248;-1.700;2023-12-04T02:27:07;8.20;76.20
46926;DHT22;32667;48.248;-1.700;2023-12-04T02:29:41;8.20;76.20
46926;DHT22;32667;48.248;-1.700;2023-12-04T02:32:14;8.20;76.20
46926;DHT22;32667;48.248;-1.700;2023-12-04T02:34:41;8.20;76.20
46926;DHT22;32667;48.248;-1.700;2023-12-04T02:37:11;8.20;76.20
46926;DHT22;32667;48.248;-1.700;2023-12-04T02:39:38;8.20;76.20
46926;DHT22;32667;48.248;-1.700;2023-12-04T02:42:04;8.20;76.20
46926;DHT22;32667;48.248;-1.700;2023-12-04T02:44:39;8.30;76.30
46926;DHT22;32667;48.248;-1.700;2023-12-04T02:47:07;8.30;76.90
46926;DHT22;32667;48.248;-1.700;2023-12-04T02:49:33;8.30;76.30
46926;DHT22;32667;48.248;-1.700;2023-12-04T02:51:58;8.30;76.30
46926;DHT22;32667;48.248;-1.700;2023-12-04T02:54:26;8.30;76.20
46926;DHT22;32667;48.248;-1.700;2023-12-04T02:56:52;8.30;76.20
46926;DHT22;32667;48.248;-1.700;2023-12-04T02:59:20;8.40;76.30
46926;DHT22;32667;48.248;-1.700;2023-12-04T03:01:46;8.40;76.30
46926;DHT22;32667;48.248;-1.700;2023-12-04T03:04:14;8.40;76.20
46926;DHT22;32667;48.248;-1.700;2023-12-04T03:06:39;8.40;76.20
46926;DHT22;32667;48.248;-1.700;2023-12-04T03:09:05;8.40;76.10
46926;DHT22;32667;48.248;-1.700;2023-12-04T03:11:31;8.50;76.20
46926;DHT22;32667;48.248;-1.700;2023-12-04T03:14:02;8.40;76.10
46926;DHT22;32667;48.248;-1.700;2023-12-04T03:16:30;8.40;76.10
46926;DHT22;32667;48.248;-1.700;2023-12-04T03:18:58;8.50;76.20
46926;DHT22;32667;48.248;-1.700;2023-12-04T03:21:24;8.50;76.10
46926;DHT22;32667;48.248;-1.700;2023-12-04T03:23:57;8.50;76.10
46926;DHT22;32667;48.248;-1.700;2023-12-04T03:26:23;8.50;76.20
46926;DHT22;32667;48.248;-1.700;2023-12-04T03:28:49;8.50;76.20
46926;DHT22;32667;48.248;-1.700;2023-12-04T03:31:15;8.40;76.20
46926;DHT22;32667;48.248;-1.700;2023-12-04T03:33:40;8.40;76.20
46926;DHT22;32667;48.248;-1.700;2023-12-04T03:36:07;8.40;76.20
46926;DHT22;32667;48.248;-1.700;2023-12-04T03:38:33;8.40;76.20
46926;DHT22;32667;48.248;-1.700;2023-12-04T03:40:58;8.40;76.30
46926;DHT22;32667;48.248;-1.700;2023-12-04T03:43:24;8.50;76.40
46926;DHT22;32667;48.248;-1.700;2023-12-04T03:45:50;8.50;76.30
46926;DHT22;32667;48.248;-1.700;2023-12-04T03:48:15;8.50;76.30
46926;DHT22;32667;48.248;-1.700;2023-12-04T03:50:43;8.40;76.20
46926;DHT22;32667;48.248;-1.700;2023-12-04T03:53:09;8.50;76.30
46926;DHT22;32667;48.248;-1.700;2023-12-04T03:55:35;8.50;76.30
46926;DHT22;32667;48.248;-1.700;2023-12-04T03:58:01;8.50;76.20
46926;DHT22;32667;48.248;-1.700;2023-12-04T04:00:26;8.50;76.20
46926;DHT22;32667;48.248;-1.700;2023-12-04T04:02:52;8.60;76.20
46926;DHT22;32667;48.248;-1.700;2023-12-04T04:05:18;8.50;76.10
46926;DHT22;32667;48.248;-1.700;2023-12-04T04:07:44;8.50;76.20
46926;DHT22;32667;48.248;-1.700;2023-12-04T04:10:09;8.50;76.30
46926;DHT22;32667;48.248;-1.700;2023-12-04T04:12:35;8.50;76.20
46926;DHT22;32667;48.248;-1.700;2023-12-04T04:15:01;8.50;76.20
46926;DHT22;32667;48.248;-1.700;2023-12-04T04:17:27;8.50;76.20
46926;DHT22;32667;48.248;-1.700;2023-12-04T04:20:03;8.50;76.20
46926;DHT22;32667;48.248;-1.700;2023-12-04T04:22:29;8.50;76.20
46926;DHT22;32667;48.248;-1.700;2023-12-04T04:24:55;8.60;76.20
46926;DHT22;32667;48.248;-1.700;2023-12-04T04:27:21;8.60;76.20
46926;DHT22;32667;48.248;-1.700;2023-12-04T04:29:56;8.60;76.20
46926;DHT22;32667;48.248;-1.700;2023-12-04T04:32:22;8.60;76.20
46926;DHT22;32667;48.248;-1.700;2023-12-04T04:34:47;8.60;76.10
46926;DHT22;32667;48.248;-1.700;2023-12-04T04:37:13;8.60;76.20
46926;DHT22;32667;48.248;-1.700;2023-12-04T04:39:42;8.60;76.20
46926;DHT22;32667;48.248;-1.700;2023-12-04T04:42:08;8.60;76.10
46926;DHT22;32667;48.248;-1.700;2023-12-04T04:44:36;8.70;76.10
46926;DHT22;32667;48.248;-1.700;2023-12-04T04:47:01;8.60;76.10
46926;DHT22;32667;48.248;-1.700;2023-12-04T04:49:27;8.60;76.10
46926;DHT22;32667;48.248;-1.700;2023-12-04T04:51:55;8.60;76.30
46926;DHT22;32667;48.248;-1.700;2023-12-04T04:54:24;8.50;76.30
46926;DHT22;32667;48.248;-1.700;2023-12-04T04:56:52;8.50;76.40
46926;DHT22;32667;48.248;-1.700;2023-12-04T04:59:17;8.40;76.40
46926;DHT22;32667;48.248;-1.700;2023-12-04T05:01:43;8.40;76.50
46926;DHT22;32667;48.248;-1.700;2023-12-04T05:04:16;8.40;76.60
46926;DHT22;32667;48.248;-1.700;2023-12-04T05:06:44;8.40;76.70
46926;DHT22;32667;48.248;-1.700;2023-12-04T05:09:10;8.40;76.70
46926;DHT22;32667;48.248;-1.700;2023-12-04T05:11:38;8.40;76.70
46926;DHT22;32667;48.248;-1.700;2023-12-04T05:14:03;8.40;76.60
46926;DHT22;32667;48.248;-1.700;2023-12-04T05:16:29;8.50;76.60
46926;DHT22;32667;48.248;-1.700;2023-12-04T05:18:55;8.60;76.50
46926;DHT22;32667;48.248;-1.700;2023-12-04T05:21:23;8.60;76.30
46926;DHT22;32667;48.248;-1.700;2023-12-04T05:23:48;8.70;76.30
46926;DHT22;32667;48.248;-1.700;2023-12-04T05:26:14;8.70;76.10
46926;DHT22;32667;48.248;-1.700;2023-12-04T05:28:40;8.80;76.10
46926;DHT22;32667;48.248;-1.700;2023-12-04T05:31:06;8.90;76.00
46926;DHT22;32667;48.248;-1.700;2023-12-04T05:33:31;9.00;75.90
46926;DHT22;32667;48.248;-1.700;2023-12-04T05:36:00;9.00;75.80
46926;DHT22;32667;48.248;-1.700;2023-12-04T05:38:26;9.10;75.80
46926;DHT22;32667;48.248;-1.700;2023-12-04T05:40:52;9.10;75.70
46926;DHT22;32667;48.248;-1.700;2023-12-04T05:43:18;9.10;75.60
46926;DHT22;32667;48.248;-1.700;2023-12-04T05:45:44;9.20;75.60
46926;DHT22;32667;48.248;-1.700;2023-12-04T05:48:10;9.20;75.60
46926;DHT22;32667;48.248;-1.700;2023-12-04T05:50:36;9.30;75.60
46926;DHT22;32667;48.248;-1.700;2023-12-04T05:53:01;9.30;75.60
46926;DHT22;32667;48.248;-1.700;2023-12-04T05:55:27;9.30;75.50
46926;DHT22;32667;48.248;-1.700;2023-12-04T05:57:53;9.40;75.60
46926;DHT22;32667;48.248;-1.700;2023-12-04T06:00:18;9.40;75.50
46926;DHT22;32667;48.248;-1.700;2023-12-04T06:02:44;9.40;75.50
46926;DHT22;32667;48.248;-1.700;2023-12-04T06:05:13;9.40;75.50
46926;DHT22;32667;48.248;-1.700;2023-12-04T06:07:39;9.50;75.50
46926;DHT22;32667;48.248;-1.700;2023-12-04T06:10:06;9.50;75.50
46926;DHT22;32667;48.248;-1.700;2023-12-04T06:12:35;9.50;75.50
46926;DHT22;32667;48.248;-1.700;2023-12-04T06:15:00;9.50;75.50
46926;DHT22;32667;48.248;-1.700;2023-12-04T06:17:33;9.60;75.50
46926;DHT22;32667;48.248;-1.700;2023-12-04T06:19:59;9.60;75.50
46926;DHT22;32667;48.248;-1.700;2023-12-04T06:22:25;9.70;75.50
46926;DHT22;32667;48.248;-1.700;2023-12-04T06:24:52;9.70;75.50
46926;DHT22;32667;48.248;-1.700;2023-12-04T06:27:21;9.70;75.50
46926;DHT22;32667;48.248;-1.700;2023-12-04T06:29:48;9.70;75.50
46926;DHT22;32667;48.248;-1.700;2023-12-04T06:32:16;9.70;75.40
46926;DHT22;32667;48.248;-1.700;2023-12-04T06:34:42;9.80;75.40
46926;DHT22;32667;48.248;-1.700;2023-12-04T06:37:13;9.80;75.50
46926;DHT22;32667;48.248;-1.700;2023-12-04T06:39:40;9.80;75.40
46926;DHT22;32667;48.248;-1.700;2023-12-04T06:42:10;9.90;75.40
46926;DHT22;32667;48.248;-1.700;2023-12-04T06:44:36;9.90;75.30
46926;DHT22;32667;48.248;-1.700;2023-12-04T06:47:15;9.90;75.30
46926;DHT22;32667;48.248;-1.700;2023-12-04T06:49:43;9.90;75.20
46926;DHT22;32667;48.248;-1.700;2023-12-04T06:52:08;9.90;75.20
46926;DHT22;32667;48.248;-1.700;2023-12-04T06:54:34;10.00;75.30
46926;DHT22;32667;48.248;-1.700;2023-12-04T06:57:00;10.00;75.30
46926;DHT22;32667;48.248;-1.700;2023-12-04T06:59:31;10.00;75.30
46926;DHT22;32667;48.248;-1.700;2023-12-04T07:01:59;10.00;75.30
46926;DHT22;32667;48.248;-1.700;2023-12-04T07:04:27;10.00;75.20
46926;DHT22;32667;48.248;-1.700;2023-12-04T07:06:55;10.00;75.30
46926;DHT22;32667;48.248;-1.700;2023-12-04T07:09:21;10.00;75.30
46926;DHT22;32667;48.248;-1.700;2023-12-04T07:11:47;10.10;75.40
46926;DHT22;32667;48.248;-1.700;2023-12-04T07:14:13;10.10;75.90
46926;DHT22;32667;48.248;-1.700;2023-12-04T07:16:44;10.10;75.30
46926;DHT22;32667;48.248;-1.700;2023-12-04T07:19:10;10.20;75.30
46926;DHT22;32667;48.248;-1.700;2023-12-04T07:21:38;10.20;75.30
46926;DHT22;32667;48.248;-1.700;2023-12-04T07:24:04;10.20;75.20
46926;DHT22;32667;48.248;-1.700;2023-12-04T07:26:30;10.20;75.20
46926;DHT22;32667;48.248;-1.700;2023-12-04T07:28:57;10.20;75.20
46926;DHT22;32667;48.248;-1.700;2023-12-04T07:31:22;10.30;75.20
46926;DHT22;32667;48.248;-1.700;2023-12-04T07:33:48;10.30;75.20
46926;DHT22;32667;48.248;-1.700;2023-12-04T07:36:14;10.30;75.30
46926;DHT22;32667;48.248;-1.700;2023-12-04T07:38:40;10.30;75.30
46926;DHT22;32667;48.248;-1.700;2023-12-04T07:41:07;10.30;75.30
46926;DHT22;32667;48.248;-1.700;2023-12-04T07:43:33;10.40;75.30
46926;DHT22;32667;48.248;-1.700;2023-12-04T07:46:01;10.40;75.20
46926;DHT22;32667;48.248;-1.700;2023-12-04T07:48:27;10.50;75.20
46926;DHT22;32667;48.248;-1.700;2023-12-04T07:50:55;10.50;75.20
46926;DHT22;32667;48.248;-1.700;2023-12-04T07:53:20;10.50;75.20
46926;DHT22;32667;48.248;-1.700;2023-12-04T07:55:46;10.60;75.20
46926;DHT22;32667;48.248;-1.700;2023-12-04T07:58:22;10.60;75.20
46926;DHT22;32667;48.248;-1.700;2023-12-04T08:00:50;10.60;75.20
46926;DHT22;32667;48.248;-1.700;2023-12-04T08:03:16;10.60;75.20
46926;DHT22;32667;48.248;-1.700;2023-12-04T08:05:42;10.60;75.20
46926;DHT22;32667;48.248;-1.700;2023-12-04T08:08:08;10.70;75.30
46926;DHT22;32667;48.248;-1.700;2023-12-04T08:10:33;10.70;75.20
46926;DHT22;32667;48.248;-1.700;2023-12-04T08:13:01;10.70;75.10
46926;DHT22;32667;48.248;-1.700;2023-12-04T08:15:30;10.80;75.10
46926;DHT22;32667;48.248;-1.700;2023-12-04T08:17:59;10.80;75.10
46926;DHT22;32667;48.248;-1.700;2023-12-04T08:20:33;10.80;75.70
46926;DHT22;32667;48.248;-1.700;2023-12-04T08:22:59;10.90;75.20
46926;DHT22;32667;48.248;-1.700;2023-12-04T08:25:25;10.90;75.20
46926;DHT22;32667;48.248;-1.700;2023-12-04T08:27:53;10.90;75.20
46926;DHT22;32667;48.248;-1.700;2023-12-04T08:30:19;11.00;75.20
46926;DHT22;32667;48.248;-1.700;2023-12-04T08:32:47;11.00;75.00
46926;DHT22;32667;48.248;-1.700;2023-12-04T08:35:16;11.10;75.00
46926;DHT22;32667;48.248;-1.700;2023-12-04T08:37:41;11.10;75.10
46926;DHT22;32667;48.248;-1.700;2023-12-04T08:40:08;11.10;75.10
46926;DHT22;32667;48.248;-1.700;2023-12-04T08:42:34;11.10;75.00
46926;DHT22;32667;48.248;-1.700;2023-12-04T08:44:59;11.20;75.00
46926;DHT22;32667;48.248;-1.700;2023-12-04T08:47:25;11.20;75.10
46926;DHT22;32667;48.248;-1.700;2023-12-04T08:49:51;11.20;75.00
46926;DHT22;32667;48.248;-1.700;2023-12-04T08:52:17;11.30;75.60
46926;DHT22;32667;48.248;-1.700;2023-12-04T08:54:45;11.30;75.00
46926;DHT22;32667;48.248;-1.700;2023-12-04T08:57:11;11.30;75.10
46926;DHT22;32667;48.248;-1.700;2023-12-04T08:59:36;11.30;75.10
46926;DHT22;32667;48.248;-1.700;2023-12-04T09:02:02;11.30;75.10
46926;DHT22;32667;48.248;-1.700;2023-12-04T09:04:31;11.30;75.10
46926;DHT22;32667;48.248;-1.700;2023-12-04T09:06:57;11.30;75.10
46926;DHT22;32667;48.248;-1.700;2023-12-04T09:09:23;11.30;75.20
46926;DHT22;32667;48.248;-1.700;2023-12-04T09:11:56;11.40;75.30
46926;DHT22;32667;48.248;-1.700;2023-12-04T09:14:22;11.40;75.30
46926;DHT22;32667;48.248;-1.700;2023-12-04T09:16:48;11.40;75.20
46926;DHT22;32667;48.248;-1.700;2023-12-04T09:19:14;11.50;75.30
46926;DHT22;32667;48.248;-1.700;2023-12-04T09:21:42;11.50;75.20
46926;DHT22;32667;48.248;-1.700;2023-12-04T09:24:13;11.60;75.20
46926;DHT22;32667;48.248;-1.700;2023-12-04T09:26:42;11.60;75.10
46926;DHT22;32667;48.248;-1.700;2023-12-04T09:29:13;11.50;75.10
46926;DHT22;32667;48.248;-1.700;2023-12-04T09:31:39;11.50;75.20
46926;DHT22;32667;48.248;-1.700;2023-12-04T09:34:05;11.50;75.30
46926;DHT22;32667;48.248;-1.700;2023-12-04T09:36:31;11.40;75.40
46926;DHT22;32667;48.248;-1.700;2023-12-04T09:38:56;11.40;75.50
46926;DHT22;32667;48.248;-1.700;2023-12-04T09:41:22;11.40;75.60
46926;DHT22;32667;48.248;-1.700;2023-12-04T09:43:48;11.40;75.60
46926;DHT22;32667;48.248;-1.700;2023-12-04T09:46:15;11.40;76.20
46926;DHT22;32667;48.248;-1.700;2023-12-04T09:48:43;11.40;75.60
46926;DHT22;32667;48.248;-1.700;2023-12-04T09:51:12;11.50;75.60
46926;DHT22;32667;48.248;-1.700;2023-12-04T09:53:40;11.50;75.50
46926;DHT22;32667;48.248;-1.700;2023-12-04T09:56:15;11.60;75.50
46926;DHT22;32667;48.248;-1.700;2023-12-04T09:58:43;11.60;75.40
46926;DHT22;32667;48.248;-1.700;2023-12-04T10:01:10;11.60;75.30
46926;DHT22;32667;48.248;-1.700;2023-12-04T10:03:36;11.70;75.30
46926;DHT22;32667;48.248;-1.700;2023-12-04T10:06:02;11.70;75.30
46926;DHT22;32667;48.248;-1.700;2023-12-04T10:08:29;11.70;75.20
46926;DHT22;32667;48.248;-1.700;2023-12-04T10:10:55;11.70;75.20
46926;DHT22;32667;48.248;-1.700;2023-12-04T10:13:21;11.70;75.20
46926;DHT22;32667;48.248;-1.700;2023-12-04T10:15:47;11.70;75.20
46926;DHT22;32667;48.248;-1.700;2023-12-04T10:18:32;11.80;75.80
46926;DHT22;32667;48.248;-1.700;2023-12-04T10:21:01;11.80;75.20
46926;DHT22;32667;48.248;-1.700;2023-12-04T10:23:41;11.80;75.20
46926;DHT22;32667;48.248;-1.700;2023-12-04T10:26:08;11.90;75.10
46926;DHT22;32667;48.248;-1.700;2023-12-04T10:28:34;11.90;75.00
46926;DHT22;32667;48.248;-1.700;2023-12-04T10:31:00;11.90;75.00
46926;DHT22;32667;48.248;-1.700;2023-12-04T10:33:29;12.00;75.00
46926;DHT22;32667;48.248;-1.700;2023-12-04T10:35:57;12.00;74.90
46926;DHT22;32667;48.248;-1.700;2023-12-04T10:38:23;12.00;74.90
46926;DHT22;32667;48.248;-1.700;2023-12-04T10:40:48;12.10;74.80
46926;DHT22;32667;48.248;-1.700;2023-12-04T10:43:19;12.20;74.80
46926;DHT22;32667;48.248;-1.700;2023-12-04T10:45:46;12.20;74.80
46926;DHT22;32667;48.248;-1.700;2023-12-04T10:48:18;12.20;74.70
46926;DHT22;32667;48.248;-1.700;2023-12-04T10:50:47;12.30;74.80
46926;DHT22;32667;48.248;-1.700;2023-12-04T10:53:18;12.30;74.80
46926;DHT22;32667;48.248;-1.700;2023-12-04T10:55:44;12.30;74.70
46926;DHT22;32667;48.248;-1.700;2023-12-04T10:58:12;12.30;74.60
46926;DHT22;32667;48.248;-1.700;2023-12-04T11:00:44;12.40;74.60
46926;DHT22;32667;48.248;-1.700;2023-12-04T11:03:22;12.40;74.70
46926;DHT22;32667;48.248;-1.700;2023-12-04T11:06:00;12.40;74.70
46926;DHT22;32667;48.248;-1.700;2023-12-04T11:08:28;12.40;74.60
46926;DHT22;32667;48.248;-1.700;2023-12-04T11:11:02;12.50;74.70
46926;DHT22;32667;48.248;-1.700;2023-12-04T11:13:41;12.50;74.70
46926;DHT22;32667;48.248;-1.700;2023-12-04T11:16:26;12.40;74.60
46926;DHT22;32667;48.248;-1.700;2023-12-04T11:21:34;12.40;74.70
46926;DHT22;32667;48.248;-1.700;2023-12-04T11:24:00;12.40;74.70
46926;DHT22;32667;48.248;-1.700;2023-12-04T11:26:27;12.40;74.80
46926;DHT22;32667;48.248;-1.700;2023-12-04T11:28:54;12.50;74.90
46926;DHT22;32667;48.248;-1.700;2023-12-04T11:31:20;12.50;74.80
46926;DHT22;32667;48.248;-1.700;2023-12-04T11:33:48;12.60;74.70
46926;DHT22;32667;48.248;-1.700;2023-12-04T11:36:15;12.60;74.70
46926;DHT22;32667;48.248;-1.700;2023-12-04T11:38:45;12.60;74.70
46926;DHT22;32667;48.248;-1.700;2023-12-04T11:41:22;12.60;74.70
46926;DHT22;32667;48.248;-1.700;2023-12-04T11:43:48;12.70;74.70
46926;DHT22;32667;48.248;-1.700;2023-12-04T11:46:19;12.70;74.70
46926;DHT22;32667;48.248;-1.700;2023-12-04T11:48:50;12.70;74.70
46926;DHT22;32667;48.248;-1.700;2023-12-04T11:54:10;12.70;74.80
46926;DHT22;32667;48.248;-1.700;2023-12-04T11:56:38;12.60;74.80
46926;DHT22;32667;48.248;-1.700;2023-12-04T11:59:07;12.60;74.80
46926;DHT22;32667;48.248;-1.700;2023-12-04T12:01:36;12.70;74.80
46926;DHT22;32667;48.248;-1.700;2023-12-04T12:04:07;12.60;74.80
46926;DHT22;32667;48.248;-1.700;2023-12-04T12:06:35;12.60;74.90
46926;DHT22;32667;48.248;-1.700;2023-12-04T12:09:01;12.70;74.90
46926;DHT22;32667;48.248;-1.700;2023-12-04T12:11:29;12.70;75.00
46926;DHT22;32667;48.248;-1.700;2023-12-04T12:13:55;12.70;75.00
46926;DHT22;32667;48.248;-1.700;2023-12-04T12:16:21;12.70;75.00
46926;DHT22;32667;48.248;-1.700;2023-12-04T12:18:49;12.70;74.90
46926;DHT22;32667;48.248;-1.700;2023-12-04T12:21:17;12.80;74.90
46926;DHT22;32667;48.248;-1.700;2023-12-04T12:23:44;12.80;74.80
46926;DHT22;32667;48.248;-1.700;2023-12-04T12:26:09;12.80;74.70
46926;DHT22;32667;48.248;-1.700;2023-12-04T12:28:39;12.90;74.70
46926;DHT22;32667;48.248;-1.700;2023-12-04T12:31:06;12.90;74.60
46926;DHT22;32667;48.248;-1.700;2023-12-04T12:33:32;13.00;74.60
46926;DHT22;32667;48.248;-1.700;2023-12-04T12:35:59;13.00;74.60
46926;DHT22;32667;48.248;-1.700;2023-12-04T12:38:25;12.90;74.60
46926;DHT22;32667;48.248;-1.700;2023-12-04T12:40:53;12.90;74.70
46926;DHT22;32667;48.248;-1.700;2023-12-04T12:43:20;12.90;74.70
46926;DHT22;32667;48.248;-1.700;2023-12-04T12:45:47;12.90;74.80
46926;DHT22;32667;48.248;-1.700;2023-12-04T12:48:16;12.80;74.90
46926;DHT22;32667;48.248;-1.700;2023-12-04T12:50:54;12.80;75.00
46926;DHT22;32667;48.248;-1.700;2023-12-04T12:53:20;12.80;75.10
46926;DHT22;32667;48.248;-1.700;2023-12-04T12:55:47;12.70;75.10
46926;DHT22;32667;48.248;-1.700;2023-12-04T12:58:15;12.70;75.10
46926;DHT22;32667;48.248;-1.700;2023-12-04T13:00:45;12.70;75.20
46926;DHT22;32667;48.248;-1.700;2023-12-04T13:03:18;12.60;75.90
46926;DHT22;32667;48.248;-1.700;2023-12-04T13:05:44;12.60;75.40
46926;DHT22;32667;48.248;-1.700;2023-12-04T13:08:10;12.50;75.40
46926;DHT22;32667;48.248;-1.700;2023-12-04T13:10:41;12.50;75.50
46926;DHT22;32667;48.248;-1.700;2023-12-04T13:13:11;12.40;75.50
46926;DHT22;32667;48.248;-1.700;2023-12-04T13:15:37;12.40;75.60
46926;DHT22;32667;48.248;-1.700;2023-12-04T13:18:03;12.40;75.70
46926;DHT22;32667;48.248;-1.700;2023-12-04T13:20:29;12.30;75.70
46926;DHT22;32667;48.248;-1.700;2023-12-04T13:22:57;12.30;75.80
46926;DHT22;32667;48.248;-1.700;2023-12-04T13:25:25;12.30;75.90
46926;DHT22;32667;48.248;-1.700;2023-12-04T13:27:50;12.30;75.80
46926;DHT22;32667;48.248;-1.700;2023-12-04T13:30:16;12.30;75.80
46926;DHT22;32667;48.248;-1.700;2023-12-04T13:32:42;12.40;75.70
46926;DHT22;32667;48.248;-1.700;2023-12-04T13:35:09;12.50;75.50
46926;DHT22;32667;48.248;-1.700;2023-12-04T13:37:36;12.60;75.40
46926;DHT22;32667;48.248;-1.700;2023-12-04T13:40:05;12.60;75.10
46926;DHT22;32667;48.248;-1.700;2023-12-04T13:42:38;12.60;75.10
46926;DHT22;32667;48.248;-1.700;2023-12-04T13:45:23;12.60;75.00
46926;DHT22;32667;48.248;-1.700;2023-12-04T13:47:49;12.60;75.10
46926;DHT22;32667;48.248;-1.700;2023-12-04T13:50:15;12.50;75.10
46926;DHT22;32667;48.248;-1.700;2023-12-04T13:52:41;12.40;75.20
46926;DHT22;32667;48.248;-1.700;2023-12-04T13:55:09;12.40;75.40
46926;DHT22;32667;48.248;-1.700;2023-12-04T13:57:46;12.30;75.40
46926;DHT22;32667;48.248;-1.700;2023-12-04T14:00:24;12.30;75.50
46926;DHT22;32667;48.248;-1.700;2023-12-04T14:02:50;12.20;75.60
46926;DHT22;32667;48.248;-1.700;2023-12-04T14:05:25;12.10;75.70
46926;DHT22;32667;48.248;-1.700;2023-12-04T14:07:51;12.10;75.80
46926;DHT22;32667;48.248;-1.700;2023-12-04T14:10:18;12.00;75.90
46926;DHT22;32667;48.248;-1.700;2023-12-04T14:12:46;12.00;75.90
46926;DHT22;32667;48.248;-1.700;2023-12-04T14:15:19;12.00;76.00
46926;DHT22;32667;48.248;-1.700;2023-12-04T14:17:45;11.90;75.90
46926;DHT22;32667;48.248;-1.700;2023-12-04T14:20:14;11.90;76.00
46926;DHT22;32667;48.248;-1.700;2023-12-04T14:22:45;11.90;76.00
46926;DHT22;32667;48.248;-1.700;2023-12-04T14:25:13;11.90;75.90
46926;DHT22;32667;48.248;-1.700;2023-12-04T14:27:39;11.90;75.90
46926;DHT22;32667;48.248;-1.700;2023-12-04T14:30:10;11.90;75.90
46926;DHT22;32667;48.248;-1.700;2023-12-04T14:32:41;11.80;76.00
46926;DHT22;32667;48.248;-1.700;2023-12-04T14:35:07;11.80;76.00
46926;DHT22;32667;48.248;-1.700;2023-12-04T14:37:34;11.80;76.00
46926;DHT22;32667;48.248;-1.700;2023-12-04T14:40:02;11.80;76.00
46926;DHT22;32667;48.248;-1.700;2023-12-04T14:42:30;11.70;76.10
46926;DHT22;32667;48.248;-1.700;2023-12-04T14:44:56;11.70;76.10
46926;DHT22;32667;48.248;-1.700;2023-12-04T14:47:22;11.70;76.20
46926;DHT22;32667;48.248;-1.700;2023-12-04T14:49:50;11.60;76.20
46926;DHT22;32667;48.248;-1.700;2023-12-04T14:52:20;11.60;76.20
46926;DHT22;32667;48.248;-1.700;2023-12-04T14:54:47;11.50;76.20
46926;DHT22;32667;48.248;-1.700;2023-12-04T14:57:32;11.50;76.20
46926;DHT22;32667;48.248;-1.700;2023-12-04T15:00:18;11.40;76.30
46926;DHT22;32667;48.248;-1.700;2023-12-04T15:03:03;11.40;76.30
46926;DHT22;32667;48.248;-1.700;2023-12-04T15:05:31;11.40;76.30
46926;DHT22;32667;48.248;-1.700;2023-12-04T15:08:09;11.40;76.30
46926;DHT22;32667;48.248;-1.700;2023-12-04T15:10:44;11.30;76.30
46926;DHT22;32667;48.248;-1.700;2023-12-04T15:13:28;11.30;76.40
46926;DHT22;32667;48.248;-1.700;2023-12-04T15:16:13;11.20;76.40
46926;DHT22;32667;48.248;-1.700;2023-12-04T15:18:41;11.20;76.40
46926;DHT22;32667;48.248;-1.700;2023-12-04T15:21:24;11.20;76.40
46926;DHT22;32667;48.248;-1.700;2023-12-04T15:23:52;11.20;76.50
46926;DHT22;32667;48.248;-1.700;2023-12-04T15:26:18;11.20;76.50
46926;DHT22;32667;48.248;-1.700;2023-12-04T15:28:47;11.20;76.50
46926;DHT22;32667;48.248;-1.700;2023-12-04T15:31:13;11.10;76.40
46926;DHT22;32667;48.248;-1.700;2023-12-04T15:33:41;11.10;76.50